createdAt,value
2018-08-18T00:00:39.530Z,17.00
2018-08-18T00:03:09.165Z,16.00
2018-08-18T00:05:38.467Z,20.00
2018-08-18T00:08:07.943Z,18.00
2018-08-18T00:10:37.859Z,18.67
2018-08-18T00:13:07.406Z,17.00
2018-08-18T00:15:36.742Z,18.33
2018-08-18T00:18:14.811Z,19.67
2018-08-18T00:20:44.129Z,16.67
2018-08-18T00:23:13.566Z,18.00
2018-08-18T00:25:43.209Z,16.67
2018-08-18T00:28:19.527Z,16.67
2018-08-18T00:30:48.886Z,16.00
2018-08-18T00:33:18.714Z,18.67
2018-08-18T00:35:48.126Z,17.67
2018-08-18T00:38:17.396Z,17.67
2018-08-18T00:40:47.277Z,19.00
2018-08-18T00:43:17.128Z,15.33
2018-08-18T00:45:46.675Z,18.33
2018-08-18T00:48:16.379Z,15.00
2018-08-18T00:50:46.371Z,16.00
2018-08-18T00:53:15.707Z,15.00
2018-08-18T00:55:45.347Z,14.67
2018-08-18T00:58:21.819Z,15.00
2018-08-18T01:00:56.136Z,16.67
2018-08-18T01:03:25.729Z,15.00
2018-08-18T01:05:55.668Z,15.00
2018-08-18T01:08:28.345Z,17.00
2018-08-18T01:10:59.654Z,15.67
2018-08-18T01:13:29.704Z,14.33
2018-08-18T01:15:58.971Z,13.67
2018-08-18T01:18:28.723Z,14.00
2018-08-18T01:20:58.159Z,14.33
2018-08-18T01:23:27.522Z,14.33
2018-08-18T01:25:57.268Z,16.33
2018-08-18T01:28:26.763Z,15.00
2018-08-18T01:31:07.767Z,11.00
2018-08-18T01:33:39.860Z,14.33
2018-08-18T01:36:11.951Z,14.00
2018-08-18T01:38:41.253Z,11.00
2018-08-18T01:41:19.813Z,13.33
2018-08-18T01:46:28.022Z,11.29
2018-08-18T01:48:57.609Z,11.00
2018-08-18T01:51:29.797Z,11.00
2018-08-18T01:53:59.119Z,11.00
2018-08-18T01:56:29.794Z,11.00
2018-08-18T01:59:01.605Z,11.00
2018-08-18T02:01:30.852Z,11.00
2018-08-18T02:04:02.327Z,10.67
2018-08-18T02:06:31.615Z,10.00
2018-08-18T02:09:00.986Z,11.00
2018-08-18T02:11:30.543Z,11.00
2018-08-18T02:13:59.791Z,10.00
2018-08-18T02:16:30.993Z,11.00
2018-08-18T02:19:01.007Z,10.00
2018-08-18T02:21:33.152Z,10.67
2018-08-18T02:24:06.898Z,10.00
2018-08-18T02:26:37.025Z,10.00
2018-08-18T02:29:06.359Z,10.00
2018-08-18T02:31:35.794Z,9.00
2018-08-18T02:34:09.496Z,9.00
2018-08-18T02:36:40.018Z,10.00
2018-08-18T02:39:09.331Z,9.33
2018-08-18T02:41:46.435Z,9.00
2018-08-18T02:44:15.739Z,9.00
2018-08-18T02:46:45.032Z,9.00
2018-08-18T02:49:14.674Z,9.33
2018-08-18T02:51:43.987Z,9.33
2018-08-18T02:54:13.421Z,8.67
2018-08-18T02:56:43.709Z,10.00
2018-08-18T02:59:13.281Z,9.00
2018-08-18T03:01:43.951Z,9.00
2018-08-18T03:04:14.663Z,9.00
2018-08-18T03:06:44.909Z,9.00
2018-08-18T03:09:14.623Z,9.00
2018-08-18T03:11:45.036Z,10.00
2018-08-18T03:14:14.331Z,9.00
2018-08-18T03:16:44.796Z,9.00
2018-08-18T03:19:15.860Z,9.33
2018-08-18T03:21:46.139Z,6.00
2018-08-18T03:26:52.542Z,9.00
2018-08-18T03:29:24.001Z,8.33
2018-08-18T03:31:53.611Z,9.00
2018-08-18T03:34:25.103Z,9.67
2018-08-18T03:36:56.509Z,9.00
2018-08-18T03:39:40.084Z,8.33
2018-08-18T03:42:09.397Z,9.00
2018-08-18T03:44:44.410Z,8.67
2018-08-18T03:47:14.719Z,7.67
2018-08-18T03:49:45.332Z,9.00
2018-08-18T03:52:17.829Z,7.33
2018-08-18T03:54:48.044Z,7.33
2018-08-18T03:57:19.007Z,6.67
2018-08-18T03:59:52.431Z,8.00
2018-08-18T04:02:23.075Z,7.20
2018-08-18T04:04:57.792Z,7.67
2018-08-18T04:07:28.275Z,7.33
2018-08-18T04:10:04.663Z,8.00
2018-08-18T04:12:35.629Z,6.00
2018-08-18T04:15:07.624Z,6.00
2018-08-18T04:17:42.631Z,6.20
2018-08-18T04:20:15.000Z,6.33
2018-08-18T04:22:44.688Z,7.00
2018-08-18T04:25:17.259Z,7.33
2018-08-18T04:27:49.992Z,7.00
2018-08-18T04:30:26.504Z,7.33
2018-08-18T04:33:05.449Z,7.33
2018-08-18T04:35:36.292Z,6.00
2018-08-18T04:38:07.505Z,6.00
2018-08-18T04:40:41.070Z,7.33
2018-08-18T04:43:14.061Z,7.00
2018-08-18T04:45:46.059Z,6.50
2018-08-18T04:48:37.463Z,6.00
2018-08-18T04:51:09.929Z,5.17
2018-08-18T04:53:41.577Z,6.50
2018-08-18T04:56:13.688Z,7.33
2018-08-18T04:58:45.538Z,6.00
2018-08-18T05:01:17.138Z,5.33
2018-08-18T05:04:03.406Z,6.00
2018-08-18T05:06:36.922Z,6.00
2018-08-18T05:09:12.645Z,5.00
2018-08-18T05:11:44.167Z,6.00
2018-08-18T05:14:15.564Z,6.00
2018-08-18T05:16:48.392Z,6.00
2018-08-18T05:19:22.050Z,5.00
2018-08-18T05:21:52.935Z,6.00
2018-08-18T05:24:28.266Z,6.00
2018-08-18T05:27:01.664Z,6.00
2018-08-18T05:29:36.472Z,6.00
2018-08-18T05:32:10.625Z,6.00
2018-08-18T05:34:41.773Z,5.67
2018-08-18T05:37:12.188Z,6.67
2018-08-18T05:39:45.180Z,5.60
2018-08-18T05:42:18.712Z,5.60
2018-08-18T05:44:49.243Z,6.00
2018-08-18T05:47:23.180Z,5.67
2018-08-18T05:49:58.950Z,5.00
2018-08-18T05:52:34.172Z,5.20
2018-08-18T05:55:10.157Z,4.40
2018-08-18T05:57:40.993Z,5.67
2018-08-18T06:00:24.113Z,4.33
2018-08-18T06:03:01.863Z,5.60
2018-08-18T06:05:34.879Z,4.33
2018-08-18T06:08:09.123Z,6.40
2018-08-18T06:10:42.351Z,5.33
2018-08-18T06:13:22.057Z,4.33
2018-08-18T06:16:10.493Z,4.33
2018-08-18T06:18:45.197Z,4.33
2018-08-18T06:21:17.802Z,4.33
2018-08-18T06:23:50.558Z,5.80
2018-08-18T06:26:24.154Z,3.60
2018-08-18T06:28:58.606Z,4.00
2018-08-18T06:31:34.096Z,4.00
2018-08-18T06:34:07.804Z,4.80
2018-08-18T06:36:41.748Z,4.00
2018-08-18T06:39:16.038Z,4.00
2018-08-18T06:41:49.195Z,5.20
2018-08-18T06:44:26.342Z,5.33
2018-08-18T06:47:01.082Z,6.00
2018-08-18T06:49:35.684Z,6.00
2018-08-18T06:52:11.052Z,4.67
2018-08-18T06:54:45.257Z,4.80
2018-08-18T06:57:23.262Z,4.00
2018-08-18T06:59:59.449Z,4.00
2018-08-18T07:02:34.931Z,4.00
2018-08-18T07:05:10.505Z,4.00
2018-08-18T07:07:43.549Z,6.00
2018-08-18T07:10:28.544Z,4.00
2018-08-18T07:13:05.629Z,3.80
2018-08-18T07:15:42.258Z,3.40
2018-08-18T07:18:17.135Z,4.40
2018-08-18T07:20:50.543Z,5.33
2018-08-18T07:23:26.014Z,5.33
2018-08-18T07:26:04.144Z,3.00
2018-08-18T07:28:42.675Z,3.80
2018-08-18T07:31:16.037Z,4.00
2018-08-18T07:33:49.905Z,4.40
2018-08-18T07:36:23.827Z,4.00
2018-08-18T07:38:56.900Z,4.00
2018-08-18T07:41:29.716Z,4.00
2018-08-18T07:44:06.152Z,4.00
2018-08-18T07:46:39.708Z,3.67
2018-08-18T07:49:14.012Z,5.33
2018-08-18T07:51:48.053Z,6.33
2018-08-18T07:54:23.529Z,4.00
2018-08-18T07:56:57.777Z,5.00
2018-08-18T07:59:30.725Z,4.33
2018-08-18T08:02:06.245Z,3.00
2018-08-18T08:04:43.678Z,4.00
2018-08-18T08:07:19.983Z,3.80
2018-08-18T08:09:53.754Z,4.00
2018-08-18T08:12:28.876Z,4.00
2018-08-18T08:15:03.992Z,4.00
2018-08-18T08:17:38.824Z,4.80
2018-08-18T08:20:18.092Z,5.20
2018-08-18T08:23:08.467Z,5.00
2018-08-18T08:25:43.189Z,4.00
2018-08-18T08:28:19.230Z,4.40
2018-08-18T08:30:53.851Z,5.00
2018-08-18T08:33:36.639Z,5.33
2018-08-18T08:36:13.639Z,5.00
2018-08-18T08:38:54.542Z,5.20
2018-08-18T08:41:30.361Z,5.00
2018-08-18T08:44:04.859Z,4.60
2018-08-18T08:46:37.969Z,6.33
2018-08-18T08:49:12.593Z,4.00
2018-08-18T08:51:45.588Z,4.00
2018-08-18T08:54:18.596Z,5.33
2018-08-18T08:56:53.608Z,5.00
2018-08-18T08:59:25.804Z,5.67
2018-08-18T09:01:59.625Z,6.00
2018-08-18T09:04:34.394Z,5.40
2018-08-18T09:07:11.015Z,6.00
2018-08-18T09:09:47.573Z,6.00
2018-08-18T09:12:23.245Z,4.00
2018-08-18T09:14:56.405Z,6.00
2018-08-18T09:17:32.920Z,6.00
2018-08-18T09:20:07.653Z,5.80
2018-08-18T09:22:56.572Z,5.80
2018-08-18T09:25:30.775Z,5.00
2018-08-18T09:28:07.662Z,5.80
2018-08-18T09:30:42.507Z,5.67
2018-08-18T09:33:17.310Z,5.00
2018-08-18T09:36:01.402Z,5.60
2018-08-18T09:38:36.857Z,7.00
2018-08-18T09:41:08.362Z,6.00
2018-08-18T09:43:42.959Z,5.33
2018-08-18T09:46:16.946Z,6.00
2018-08-18T09:48:51.333Z,7.67
2018-08-18T09:51:25.136Z,7.00
2018-08-18T09:54:00.313Z,7.00
2018-08-18T09:56:33.429Z,8.00
2018-08-18T09:59:06.716Z,7.00
2018-08-18T10:01:41.258Z,7.33
2018-08-18T10:04:16.892Z,7.00
2018-08-18T10:06:49.393Z,8.00
2018-08-18T10:09:25.659Z,7.25
2018-08-18T10:12:00.651Z,7.00
2018-08-18T10:14:32.622Z,6.67
2018-08-18T10:17:04.108Z,7.00
2018-08-18T10:19:36.036Z,7.33
2018-08-18T10:22:10.339Z,7.67
2018-08-18T10:24:42.893Z,6.00
2018-08-18T10:27:18.743Z,6.00
2018-08-18T10:29:51.271Z,7.00
2018-08-18T10:32:24.521Z,7.00
2018-08-18T10:34:57.284Z,7.00
2018-08-18T10:37:31.625Z,7.00
2018-08-18T10:40:12.228Z,8.00
2018-08-18T10:42:47.980Z,6.67
2018-08-18T10:45:25.350Z,6.67
2018-08-18T10:48:00.318Z,6.20
2018-08-18T10:50:43.576Z,7.67
2018-08-18T10:53:15.908Z,8.00
2018-08-18T10:55:47.146Z,8.33
2018-08-18T10:58:28.489Z,8.00
2018-08-18T11:01:01.494Z,7.33
2018-08-18T11:03:34.548Z,8.00
2018-08-18T11:06:10.429Z,7.00
2018-08-18T11:08:42.760Z,8.00
2018-08-18T11:11:19.230Z,8.33
2018-08-18T11:13:53.479Z,8.00
2018-08-18T11:16:25.170Z,9.00
2018-08-18T11:18:57.927Z,8.00
2018-08-18T11:21:34.158Z,8.50
2018-08-18T11:24:07.639Z,8.33
2018-08-18T11:26:43.979Z,8.00
2018-08-18T11:29:20.184Z,7.33
2018-08-18T11:31:52.618Z,8.67
2018-08-18T11:34:26.900Z,7.00
2018-08-18T11:37:07.395Z,7.00
2018-08-18T11:39:40.758Z,8.00
2018-08-18T11:42:13.322Z,7.67
2018-08-18T11:44:45.789Z,7.67
2018-08-18T11:47:18.118Z,7.67
2018-08-18T11:49:51.448Z,8.00
2018-08-18T11:52:32.706Z,8.00
2018-08-18T11:55:04.309Z,8.00
2018-08-18T11:57:42.472Z,6.67
2018-08-18T12:00:19.256Z,6.67
2018-08-18T12:02:54.863Z,6.00
2018-08-18T12:05:26.767Z,7.67
2018-08-18T12:08:03.972Z,6.00
2018-08-18T12:10:37.291Z,7.00
2018-08-18T12:13:09.658Z,6.33
2018-08-18T12:15:55.492Z,6.00
2018-08-18T12:18:30.747Z,6.00
2018-08-18T12:21:05.354Z,7.25
2018-08-18T12:23:39.708Z,6.00
2018-08-18T12:26:23.127Z,6.00
2018-08-18T12:28:59.581Z,6.00
2018-08-18T12:31:33.581Z,6.00
2018-08-18T12:34:06.649Z,7.33
2018-08-18T12:36:41.100Z,7.00
2018-08-18T12:39:14.821Z,6.20
2018-08-18T12:41:47.222Z,4.67
2018-08-18T12:44:23.911Z,5.33
2018-08-18T12:46:58.965Z,7.00
2018-08-18T12:49:35.023Z,5.40
2018-08-18T12:52:10.251Z,6.80
2018-08-18T12:54:45.611Z,4.40
2018-08-18T12:57:32.030Z,6.00
2018-08-18T13:00:08.759Z,5.00
2018-08-18T13:02:50.121Z,5.00
2018-08-18T13:05:29.007Z,5.33
2018-08-18T13:08:09.719Z,6.00
2018-08-18T13:10:44.337Z,7.33
2018-08-18T13:13:18.080Z,5.33
2018-08-18T13:15:52.533Z,6.67
2018-08-18T13:18:27.442Z,6.00
2018-08-18T13:21:05.496Z,6.25
2018-08-18T13:23:41.768Z,6.00
2018-08-18T13:26:17.148Z,6.40
2018-08-18T13:28:54.151Z,6.00
2018-08-18T13:31:34.799Z,6.33
2018-08-18T13:34:08.837Z,6.00
2018-08-18T13:36:48.469Z,7.00
2018-08-18T13:39:21.603Z,7.00
2018-08-18T13:41:55.609Z,6.20
2018-08-18T13:44:37.842Z,7.00
2018-08-18T13:47:13.572Z,5.67
2018-08-18T13:49:46.920Z,6.33
2018-08-18T13:52:21.128Z,6.67
2018-08-18T13:54:58.825Z,7.00
2018-08-18T13:57:34.623Z,6.33
2018-08-18T14:00:15.973Z,6.33
2018-08-18T14:02:48.220Z,6.67
2018-08-18T14:05:26.833Z,7.00
2018-08-18T14:08:02.798Z,7.33
2018-08-18T14:10:35.988Z,7.75
2018-08-18T14:13:10.016Z,6.25
2018-08-18T14:15:48.793Z,7.00
2018-08-18T14:18:23.304Z,7.67
2018-08-18T14:21:04.700Z,9.00
2018-08-18T14:23:36.886Z,8.00
2018-08-18T14:26:09.900Z,9.00
2018-08-18T14:28:45.731Z,7.00
2018-08-18T14:31:24.248Z,5.67
2018-08-18T14:33:58.956Z,6.67
2018-08-18T14:36:33.338Z,7.00
2018-08-18T14:39:06.621Z,6.20
2018-08-18T14:41:43.008Z,6.67
2018-08-18T14:44:16.435Z,5.33
2018-08-18T14:46:49.949Z,8.00
2018-08-18T14:49:23.297Z,8.00
2018-08-18T14:52:07.443Z,7.00
2018-08-18T14:54:45.152Z,6.67
2018-08-18T14:57:18.507Z,6.67
2018-08-18T14:59:50.096Z,8.67
2018-08-18T15:02:24.407Z,7.33
2018-08-18T15:04:58.968Z,7.67
2018-08-18T15:07:41.164Z,8.33
2018-08-18T15:10:25.120Z,6.40
2018-08-18T15:12:58.385Z,7.75
2018-08-18T15:15:31.115Z,7.67
2018-08-18T15:18:08.069Z,6.00
2018-08-18T15:20:41.217Z,7.67
2018-08-18T15:23:16.270Z,7.00
2018-08-18T15:25:48.158Z,7.67
2018-08-18T15:28:22.261Z,7.00
2018-08-18T15:30:57.530Z,6.00
2018-08-18T15:33:31.497Z,7.00
2018-08-18T15:36:05.467Z,7.50
2018-08-18T15:38:46.591Z,7.00
2018-08-18T15:41:22.497Z,7.00
2018-08-18T15:43:54.929Z,6.00
2018-08-18T15:46:30.673Z,6.00
2018-08-18T15:49:07.433Z,6.00
2018-08-18T15:51:40.374Z,6.00
2018-08-18T15:54:12.287Z,6.67
2018-08-18T15:56:46.268Z,7.00
2018-08-18T15:59:18.089Z,7.33
2018-08-18T16:01:51.748Z,7.00
2018-08-18T16:04:23.541Z,8.00
2018-08-18T16:06:56.943Z,6.00
2018-08-18T16:09:30.482Z,7.00
2018-08-18T16:12:04.748Z,7.50
2018-08-18T16:14:39.448Z,7.00
2018-08-18T16:17:13.139Z,7.33
2018-08-18T16:19:46.631Z,7.00
2018-08-18T16:22:23.168Z,7.75
2018-08-18T16:24:58.318Z,7.75
2018-08-18T16:27:34.888Z,7.33
2018-08-18T16:30:08.015Z,7.00
2018-08-18T16:32:41.928Z,8.00
2018-08-18T16:35:16.698Z,7.33
2018-08-18T16:37:48.470Z,8.00
2018-08-18T16:40:21.737Z,8.67
2018-08-18T16:42:56.428Z,8.00
2018-08-18T16:45:29.534Z,7.00
2018-08-18T16:48:05.485Z,7.00
2018-08-18T16:50:38.719Z,8.67
2018-08-18T16:53:12.560Z,7.00
2018-08-18T16:55:47.452Z,8.33
2018-08-18T16:58:21.721Z,8.33
2018-08-18T17:01:00.387Z,8.00
2018-08-18T17:03:33.279Z,8.33
2018-08-18T17:06:08.198Z,9.67
2018-08-18T17:08:39.833Z,8.00
2018-08-18T17:11:11.781Z,9.33
2018-08-18T17:13:43.209Z,10.00
2018-08-18T17:16:18.242Z,10.33
2018-08-18T17:18:52.260Z,9.33
2018-08-18T17:21:23.832Z,9.67
2018-08-18T17:23:53.991Z,8.00
2018-08-18T17:26:25.239Z,8.00
2018-08-18T17:28:56.147Z,8.00
2018-08-18T17:31:26.917Z,9.00
2018-08-18T17:34:01.863Z,8.33
2018-08-18T17:36:34.973Z,7.33
2018-08-18T17:39:07.613Z,8.33
2018-08-18T17:41:38.873Z,7.67
2018-08-18T17:44:12.170Z,7.00
2018-08-18T17:46:50.468Z,8.00
2018-08-18T17:49:25.778Z,8.00
2018-08-18T17:52:06.352Z,8.00
2018-08-18T17:54:38.179Z,8.00
2018-08-18T17:57:10.316Z,7.33
2018-08-18T17:59:42.813Z,8.00
2018-08-18T18:02:16.650Z,8.00
2018-08-18T18:04:54.614Z,8.75
2018-08-18T18:07:27.336Z,8.33
2018-08-18T18:09:58.550Z,8.00
2018-08-18T18:12:33.824Z,8.00
2018-08-18T18:15:42.314Z,8.00
2018-08-18T18:18:16.325Z,8.00
2018-08-18T18:20:54.278Z,8.00
2018-08-18T18:23:27.186Z,7.67
2018-08-18T18:25:59.928Z,8.00
2018-08-18T18:28:32.193Z,8.00
2018-08-18T18:31:04.157Z,8.00
2018-08-18T18:33:35.224Z,7.00
2018-08-18T18:36:07.922Z,8.00
2018-08-18T18:38:53.786Z,6.67
2018-08-18T18:41:29.986Z,10.33
2018-08-18T18:44:06.359Z,8.33
2018-08-18T18:46:44.664Z,8.33
2018-08-18T18:49:28.426Z,8.67
2018-08-18T18:52:03.149Z,10.00
2018-08-18T18:54:34.872Z,6.67
2018-08-18T18:57:10.053Z,7.33
2018-08-18T18:59:47.235Z,8.00
2018-08-18T19:02:20.063Z,8.00
2018-08-18T19:04:52.768Z,8.00
2018-08-18T19:07:24.906Z,8.00
2018-08-18T19:10:05.075Z,10.00
2018-08-18T19:12:42.002Z,9.33
2018-08-18T19:15:24.442Z,9.00
2018-08-18T19:18:03.554Z,8.00
2018-08-18T19:20:36.632Z,9.00
2018-08-18T19:23:12.965Z,10.33
2018-08-18T19:25:44.830Z,9.33
2018-08-18T19:28:20.410Z,10.00
2018-08-18T19:30:57.406Z,9.00
2018-08-18T19:33:30.227Z,8.67
2018-08-18T19:36:04.765Z,10.00
2018-08-18T19:38:35.887Z,9.00
2018-08-18T19:41:08.603Z,9.33
2018-08-18T19:43:41.142Z,10.00
2018-08-18T19:46:11.718Z,10.00
2018-08-18T19:48:43.397Z,11.67
2018-08-18T19:51:17.255Z,12.00
2018-08-18T19:53:48.580Z,10.00
2018-08-18T19:56:19.361Z,9.00
2018-08-18T19:58:51.165Z,10.33
2018-08-18T20:01:25.653Z,10.67
2018-08-18T20:04:01.309Z,10.67
2018-08-18T20:06:36.861Z,11.00
2018-08-18T20:09:10.274Z,10.67
2018-08-18T20:11:40.500Z,10.67
2018-08-18T20:14:16.298Z,10.00
2018-08-18T20:16:48.537Z,11.00
2018-08-18T20:19:24.196Z,9.67
2018-08-18T20:21:56.722Z,9.00
2018-08-18T20:24:32.615Z,8.67
2018-08-18T20:27:10.707Z,10.67
2018-08-18T20:29:43.426Z,11.33
2018-08-18T20:32:16.752Z,8.33
2018-08-18T20:34:51.362Z,9.00
2018-08-18T20:37:26.072Z,9.00
2018-08-18T20:40:00.329Z,10.67
2018-08-18T20:42:37.348Z,11.00
2018-08-18T20:45:13.341Z,11.00
2018-08-18T20:47:47.329Z,9.00
2018-08-18T20:53:03.361Z,8.00
2018-08-18T20:55:41.640Z,8.00
2018-08-18T20:58:12.900Z,9.67
2018-08-18T21:00:43.571Z,8.33
2018-08-18T21:03:12.867Z,9.00
2018-08-18T21:05:44.069Z,8.67
2018-08-18T21:08:20.036Z,8.00
2018-08-18T21:10:53.891Z,8.00
2018-08-18T21:13:32.426Z,8.67
2018-08-18T21:16:07.523Z,9.67
2018-08-18T21:18:40.529Z,9.67
2018-08-18T21:21:34.256Z,9.00
2018-08-18T21:24:09.590Z,9.67
2018-08-18T21:26:42.470Z,8.67
2018-08-18T21:29:18.526Z,9.00
2018-08-18T21:31:54.643Z,11.67
2018-08-18T21:34:32.792Z,8.67
2018-08-18T21:37:08.530Z,8.00
2018-08-18T21:39:41.157Z,9.00
2018-08-18T21:42:13.674Z,10.33
2018-08-18T21:44:45.525Z,38.00
2018-08-18T21:47:41.022Z,14.00
2018-08-18T21:50:17.924Z,12.00
2018-08-18T21:52:53.337Z,12.67
2018-08-18T21:55:26.469Z,11.00
2018-08-18T21:58:01.145Z,11.67
2018-08-18T22:00:37.739Z,11.00
2018-08-18T22:03:09.191Z,10.00
2018-08-18T22:05:43.044Z,9.33
2018-08-18T22:08:24.037Z,10.67
2018-08-18T22:11:03.464Z,11.00
2018-08-18T22:13:45.483Z,10.00
2018-08-18T22:16:19.969Z,10.00
2018-08-18T22:18:59.719Z,10.67
2018-08-18T22:21:37.363Z,10.67
2018-08-18T22:24:10.730Z,10.00
2018-08-18T22:26:46.007Z,8.33
2018-08-18T22:29:19.929Z,8.33
2018-08-18T22:31:52.243Z,8.67
2018-08-18T22:34:23.013Z,8.67
2018-08-18T22:36:57.760Z,11.00
2018-08-18T22:39:33.051Z,12.00
2018-08-18T22:42:03.216Z,11.00
2018-08-18T22:44:33.660Z,11.67
2018-08-18T22:47:06.655Z,11.33
2018-08-18T22:49:44.284Z,10.67
2018-08-18T22:52:14.523Z,11.00
2018-08-18T22:54:46.814Z,10.00
2018-08-18T22:57:17.392Z,11.00
2018-08-18T22:59:47.541Z,10.00
2018-08-18T23:02:17.427Z,10.33
2018-08-18T23:04:47.040Z,9.67
2018-08-18T23:07:19.357Z,11.00
2018-08-18T23:09:49.497Z,12.00
2018-08-18T23:12:20.746Z,11.67
2018-08-18T23:14:51.685Z,11.67
2018-08-18T23:17:22.345Z,10.00
2018-08-18T23:19:52.413Z,11.00
2018-08-18T23:22:34.760Z,11.33
2018-08-18T23:25:05.000Z,14.00
2018-08-18T23:27:34.311Z,12.33
2018-08-18T23:30:04.348Z,13.00
2018-08-18T23:32:33.715Z,14.00
2018-08-18T23:35:04.206Z,12.67
2018-08-18T23:37:35.512Z,11.00
2018-08-18T23:40:05.803Z,12.00
2018-08-18T23:42:37.633Z,14.00
2018-08-18T23:45:08.723Z,12.67
2018-08-18T23:47:38.937Z,14.00
2018-08-18T23:50:10.442Z,13.33
2018-08-18T23:52:53.667Z,11.67
2018-08-18T23:55:24.712Z,11.67
